Etusivu
METAR-TAF:

METAR-TAF

Lentoasemat :

Enontekiö, Suomi

Enontekiön lentoasema

Leveyspiiri: 68-21-52N, Pituuspiiri: 023-25-39E, korkeus merenpinnasta: 308 m

Tämänhetkinen sää

Tämä raportti tehtiin 23 minuuttia sitten, kello 18.20 UTC
Tuuli 7 kn etelästä, vaihdellen etelän/kaakon ja lounaan välillä
Lämpötila 9°C
Kosteus 87%
Ilmanpaine 1028 hPa
Näkyvyys 10 km tai enemmän
Muutamia pilviä 1200 ft:n korkeudessa
Hajonneita pilviä 3900 ft:n korkeudessa

METAR: EFET 221820Z AUTO 19007KT 150V230 9999 FEW012 BKN039 09/07 Q1028

Aika: 21:43 (18:43 UTC)


TAF: puuttuu

Säähavainnot ja -ennusteet yli 4000 lentoasemalta (METAR- ja TAF-raportit).

Käytössä olevat sääasemat on merkitty karttaan keltaisilla ja punaisilla pisteillä.

Aseta hiiri pisteen päälle nähdäksesi sääaseman nimen.

Klikkaa sitten nähdäksesi säähavainnot ja -ennusteet.

Kartan vaihtaminen: klikkaa mustalla rastilla varustettuja vihreitä pisteitä, niin voit zoomata sisään; viivalla varustettua vihreää pistettä, niin voit zoomata ulos tai vihreitä nuolia, niin pääset viereisille kartoille.


METAR-TAF: